Time;durP1;ratioP1;P1;durP2;ratioP2;P2;SDS_P1;SDS_P2;PMS_P1;PMS_P2;Temp;Humidity;BMP_temperature;BMP_pressure;BME280_temperature;BME280_humidity;BME280_pressure;Samples;Min_cycle;Max_cycle;Signal;HPM_P1;HPM_P2
2023/08/02 00:00:57;;;;;;;2.97;2.03;;;15.90;99.90;;;;;;4975884;28;20446;-67
2023/08/02 00:03:26;;;;;;;4.00;2.00;;;15.90;99.90;;;;;;4992866;28;20528;-67
2023/08/02 00:05:55;;;;;;;2.77;1.93;;;15.90;99.90;;;;;;4994377;28;20531;-68
2023/08/02 00:08:23;;;;;;;3.60;1.83;;;15.70;99.90;;;;;;4994125;28;20469;-67
2023/08/02 00:10:51;;;;;;;2.13;1.70;;;15.80;99.90;;;;;;4990325;28;20460;-67
2023/08/02 00:13:19;;;;;;;2.90;1.77;;;15.80;99.90;;;;;;4973438;28;20925;-66
2023/08/02 00:15:47;;;;;;;2.80;1.77;;;16.00;99.90;;;;;;4974890;28;20463;-67
2023/08/02 00:18:16;;;;;;;4.03;2.17;;;16.10;99.90;;;;;;4974572;28;20570;-67
2023/08/02 00:20:47;;;;;;;2.80;2.00;;;16.30;99.90;;;;;;4976892;28;20559;-62
2023/08/02 00:23:15;;;;;;;3.03;2.10;;;16.30;99.90;;;;;;4993329;28;20486;-65
2023/08/02 00:25:43;;;;;;;3.17;2.10;;;16.30;99.90;;;;;;4993854;28;20444;-66
2023/08/02 00:28:11;;;;;;;3.70;2.20;;;16.40;99.90;;;;;;4994101;28;20489;-67
2023/08/02 00:30:45;;;;;;;4.00;1.90;;;16.40;99.90;;;;;;4991399;28;21278;-66
2023/08/02 00:33:13;;;;;;;3.37;3.07;;;16.30;99.90;;;;;;4973160;28;20526;-66
2023/08/02 00:35:48;;;;;;;2.67;2.00;;;16.30;99.90;;;;;;4974786;28;20453;-66
2023/08/02 00:38:17;;;;;;;3.27;2.07;;;16.30;99.90;;;;;;4974383;28;20467;-66
2023/08/02 00:40:45;;;;;;;3.17;2.07;;;16.40;99.90;;;;;;4976786;28;20510;-67
2023/08/02 00:43:13;;;;;;;5.17;2.10;;;16.40;99.90;;;;;;4992010;28;20505;-67
2023/08/02 00:45:41;;;;;;;2.50;2.30;;;16.30;99.90;;;;;;4993703;28;20834;-67
2023/08/02 00:48:09;;;;;;;2.23;1.87;;;16.30;99.90;;;;;;4993571;28;20434;-66
2023/08/02 00:50:38;;;;;;;2.70;2.20;;;16.30;99.90;;;;;;4991972;28;20442;-67
2023/08/02 00:53:08;;;;;;;4.07;2.40;;;16.20;99.90;;;;;;4972872;28;20448;-65
2023/08/02 00:55:36;;;;;;;2.40;1.90;;;16.00;99.90;;;;;;4973808;28;20547;-67
2023/08/02 00:58:04;;;;;;;3.93;2.37;;;15.90;99.90;;;;;;4973827;28;21028;-66
2023/08/02 01:00:32;;;;;;;3.97;1.90;;;15.80;99.90;;;;;;4973850;28;21019;-66
2023/08/02 01:03:00;;;;;;;1.80;1.70;;;15.80;99.90;;;;;;4992045;28;20876;-67
2023/08/02 01:05:34;;;;;;;3.00;2.20;;;15.70;99.90;;;;;;4993225;28;20474;-65
2023/08/02 01:08:05;;;;;;;6.33;2.30;;;15.70;99.90;;;;;;4993094;28;20435;-67
2023/08/02 01:10:44;;;;;;;2.47;2.00;;;15.60;99.90;;;;;;4992555;28;20442;-66
2023/08/02 01:13:15;;;;;;;3.50;2.37;;;15.50;99.90;;;;;;4971919;28;20489;-65
2023/08/02 01:15:45;;;;;;;3.97;2.60;;;15.50;99.90;;;;;;4973537;28;20882;-67
2023/08/02 01:18:13;;;;;;;2.77;2.03;;;15.40;99.90;;;;;;4973216;28;20545;-67
2023/08/02 01:20:43;;;;;;;2.97;2.37;;;15.30;99.90;;;;;;4974275;28;20448;-66
2023/08/02 01:23:11;;;;;;;3.00;2.20;;;15.20;99.90;;;;;;4991555;28;20480;-67
2023/08/02 01:25:41;;;;;;;4.30;2.30;;;15.20;99.90;;;;;;4992958;28;20444;-67
2023/08/02 01:28:17;;;;;;;5.43;2.40;;;15.20;99.90;;;;;;4992927;28;20514;-66
2023/08/02 01:30:50;;;;;;;3.37;2.10;;;15.10;99.90;;;;;;4991158;28;20443;-67
2023/08/02 01:33:18;;;;;;;4.50;2.80;;;15.10;99.90;;;;;;4972113;28;20499;-66
2023/08/02 01:35:48;;;;;;;3.13;2.53;;;15.00;99.90;;;;;;4973013;28;20484;-65
2023/08/02 01:38:16;;;;;;;2.80;2.20;;;15.00;99.90;;;;;;4973218;28;20945;-66
2023/08/02 01:40:44;;;;;;;2.90;2.27;;;15.20;99.90;;;;;;4973936;28;20448;-66
2023/08/02 01:43:14;;;;;;;5.63;2.80;;;15.30;99.90;;;;;;4991376;28;20877;-65
2023/08/02 01:45:42;;;;;;;4.23;2.23;;;15.30;99.90;;;;;;4992292;28;20957;-65
2023/08/02 01:48:10;;;;;;;4.67;2.30;;;15.20;99.90;;;;;;4993087;28;20864;-66
2023/08/02 01:50:38;;;;;;;3.00;2.37;;;15.20;99.90;;;;;;4989460;28;20464;-65
2023/08/02 01:53:07;;;;;;;3.47;2.53;;;15.10;99.90;;;;;;4971823;28;20451;-66
2023/08/02 01:55:36;;;;;;;4.30;2.17;;;15.00;99.90;;;;;;4973199;28;20551;-67
2023/08/02 01:58:04;;;;;;;5.00;2.47;;;15.00;99.90;;;;;;4972633;28;20531;-67
2023/08/02 02:00:32;;;;;;;7.87;2.53;;;14.90;99.90;;;;;;4979345;28;20530;-67
2023/08/02 02:03:00;;;;;;;3.47;2.40;;;14.90;99.90;;;;;;4971505;28;20456;-67
2023/08/02 02:05:28;;;;;;;4.37;2.30;;;14.80;99.90;;;;;;4972653;28;20930;-66
2023/08/02 02:07:56;;;;;;;4.60;2.57;;;14.80;99.90;;;;;;4972356;28;20442;-67
2023/08/02 02:10:25;;;;;;;2.67;2.30;;;15.00;99.90;;;;;;4972785;28;20449;-67
2023/08/02 02:12:53;;;;;;;3.53;2.00;;;15.10;99.90;;;;;;4990503;28;20514;-65
2023/08/02 02:15:21;;;;;;;2.53;1.80;;;15.20;99.90;;;;;;4991807;28;20452;-66
2023/08/02 02:17:49;;;;;;;3.10;1.70;;;15.40;99.90;;;;;;4991988;28;20451;-65
2023/08/02 02:20:18;;;;;;;3.33;2.33;;;15.40;99.90;;;;;;4991691;28;20487;-66
2023/08/02 02:22:46;;;;;;;4.10;2.20;;;15.40;99.90;;;;;;4989935;28;20941;-66
2023/08/02 02:25:14;;;;;;;2.93;2.10;;;15.50;99.90;;;;;;4990789;28;20445;-66
2023/08/02 02:27:43;;;;;;;2.60;2.13;;;15.50;99.90;;;;;;4977865;28;20467;-66
2023/08/02 02:30:12;;;;;;;2.70;2.00;;;15.60;99.90;;;;;;4972172;28;21026;-66
2023/08/02 02:32:40;;;;;;;2.93;2.30;;;15.70;99.90;;;;;;4988427;28;20553;-65
2023/08/02 02:35:12;;;;;;;4.40;1.70;;;15.80;99.90;;;;;;4991747;28;20496;-66
2023/08/02 02:37:40;;;;;;;2.63;1.80;;;15.90;99.90;;;;;;4991377;28;20463;-66
2023/08/02 02:40:09;;;;;;;2.90;2.27;;;16.00;99.90;;;;;;4991413;28;20482;-66
2023/08/02 02:42:38;;;;;;;2.83;1.70;;;16.10;99.90;;;;;;4972654;28;20451;-65
2023/08/02 02:45:08;;;;;;;3.57;1.97;;;16.10;99.90;;;;;;4972000;28;20510;-66
2023/08/02 02:47:37;;;;;;;3.63;2.10;;;16.20;99.90;;;;;;4972063;28;20481;-66
2023/08/02 02:50:06;;;;;;;4.20;2.20;;;16.20;99.90;;;;;;4971706;28;20436;-66
2023/08/02 02:52:34;;;;;;;6.80;3.00;;;16.30;99.90;;;;;;4987075;28;20457;-66
2023/08/02 02:55:02;;;;;;;1.80;1.70;;;16.40;99.90;;;;;;4990727;28;20548;-65
2023/08/02 02:57:30;;;;;;;2.80;2.20;;;16.50;99.90;;;;;;4991373;28;20511;-65
2023/08/02 02:59:58;;;;;;;2.10;1.90;;;16.50;99.90;;;;;;4991080;28;20561;-66
2023/08/02 03:02:27;;;;;;;2.90;2.20;;;16.50;99.90;;;;;;4974444;28;20513;-67
2023/08/02 03:04:55;;;;;;;2.90;1.77;;;16.50;99.90;;;;;;4971247;28;20475;-68
2023/08/02 03:07:23;;;;;;;3.40;2.20;;;16.60;99.90;;;;;;4971675;28;20546;-68
2023/08/02 03:09:51;;;;;;;3.87;1.80;;;16.60;99.90;;;;;;4971689;28;20505;-68
2023/08/02 03:12:19;;;;;;;3.40;2.00;;;16.60;99.90;;;;;;4984780;28;20495;-67
2023/08/02 03:14:47;;;;;;;2.93;1.90;;;16.70;99.90;;;;;;4990465;28;20466;-67
2023/08/02 03:17:15;;;;;;;5.33;2.10;;;16.70;99.90;;;;;;4990528;28;20447;-67
2023/08/02 03:19:45;;;;;;;2.00;1.80;;;16.70;99.90;;;;;;4990950;28;20573;-67
2023/08/02 03:22:13;;;;;;;2.60;2.13;;;16.70;99.90;;;;;;4976846;28;20510;-68
2023/08/02 03:24:41;;;;;;;2.20;1.87;;;16.70;99.90;;;;;;4970637;28;20477;-68
2023/08/02 03:27:09;;;;;;;3.60;2.40;;;16.70;99.90;;;;;;4971884;28;20466;-68
2023/08/02 03:29:37;;;;;;;3.63;1.93;;;16.80;99.90;;;;;;4971525;28;21066;-66
2023/08/02 03:32:06;;;;;;;4.30;2.67;;;16.90;99.90;;;;;;4982821;28;21018;-67
2023/08/02 03:34:34;;;;;;;2.70;1.70;;;16.90;99.90;;;;;;4989760;28;20549;-67
2023/08/02 03:37:04;;;;;;;4.80;2.20;;;17.00;99.90;;;;;;4990776;28;20878;-67
2023/08/02 03:39:32;;;;;;;2.93;2.17;;;17.00;99.90;;;;;;4990130;28;20541;-67
2023/08/02 03:42:00;;;;;;;2.10;1.70;;;17.10;99.90;;;;;;4975757;28;20853;-67
2023/08/02 03:44:28;;;;;;;2.40;2.17;;;17.00;99.90;;;;;;4977904;28;20467;-68
2023/08/02 03:46:56;;;;;;;1.97;1.80;;;17.10;99.90;;;;;;4972843;28;20451;-68
2023/08/02 03:49:24;;;;;;;3.23;1.63;;;17.00;99.90;;;;;;4981213;28;20451;-68
2023/08/02 03:51:52;;;;;;;3.83;2.40;;;17.10;99.90;;;;;;4974633;28;20522;-64
2023/08/02 03:54:22;;;;;;;2.40;2.00;;;17.10;99.90;;;;;;4969626;28;20502;-65
2023/08/02 03:56:50;;;;;;;2.43;1.87;;;17.10;99.90;;;;;;4970771;28;20535;-65
2023/08/02 03:59:18;;;;;;;5.93;1.97;;;17.10;99.90;;;;;;4970961;28;20444;-65
2023/08/02 04:01:46;;;;;;;2.77;2.03;;;17.20;99.90;;;;;;4971188;28;20452;-65
2023/08/02 04:04:14;;;;;;;2.90;2.23;;;17.20;99.90;;;;;;4969500;28;20554;-64
2023/08/02 04:06:42;;;;;;;3.10;2.60;;;17.10;99.90;;;;;;4970724;28;20453;-64
2023/08/02 04:09:11;;;;;;;3.87;2.27;;;17.20;99.90;;;;;;4970841;28;20451;-65
2023/08/02 04:11:40;;;;;;;2.33;2.00;;;17.10;99.90;;;;;;4980807;28;20439;-65
2023/08/02 04:14:08;;;;;;;2.60;2.03;;;17.20;99.90;;;;;;4988979;28;20475;-65
2023/08/02 04:16:36;;;;;;;6.60;2.20;;;17.10;99.90;;;;;;4990147;28;20875;-62
2023/08/02 04:19:04;;;;;;;3.80;2.57;;;17.10;99.90;;;;;;4990129;28;20486;-65
2023/08/02 04:21:32;;;;;;;3.47;2.43;;;17.10;99.90;;;;;;4980232;28;20486;-66
2023/08/02 04:24:00;;;;;;;3.53;2.53;;;17.10;99.90;;;;;;4969284;28;20472;-66
2023/08/02 04:26:28;;;;;;;5.07;2.90;;;17.00;99.90;;;;;;4981844;28;20443;-65
2023/08/02 04:28:58;;;;;;;6.00;2.80;;;17.00;99.90;;;;;;4977846;28;20452;-64
2023/08/02 04:31:26;;;;;;;3.40;2.70;;;17.00;99.90;;;;;;4970520;28;20451;-66
2023/08/02 04:33:55;;;;;;;3.30;2.70;;;17.00;99.90;;;;;;4969178;28;20558;-65
2023/08/02 04:36:24;;;;;;;3.70;2.50;;;17.00;99.90;;;;;;4970488;28;20448;-67
2023/08/02 04:38:53;;;;;;;4.30;2.83;;;16.90;99.90;;;;;;4970594;28;20439;-66
2023/08/02 04:41:21;;;;;;;3.70;2.97;;;16.80;99.90;;;;;;4977543;28;20484;-66
2023/08/02 04:43:52;;;;;;;5.33;2.53;;;16.70;99.90;;;;;;4988417;28;20462;-68
2023/08/02 04:46:22;;;;;;;4.10;2.70;;;16.60;99.90;;;;;;4989463;28;20446;-67
2023/08/02 04:48:51;;;;;;;4.50;2.57;;;16.40;99.90;;;;;;4990713;28;21086;-66
2023/08/02 04:51:19;;;;;;;3.40;2.57;;;16.30;99.90;;;;;;4982200;28;20463;-64
2023/08/02 04:53:47;;;;;;;3.37;2.80;;;16.20;99.90;;;;;;4978133;28;20477;-65
2023/08/02 04:56:15;;;;;;;4.90;3.10;;;16.10;99.90;;;;;;4985147;28;20451;-65
2023/08/02 04:58:44;;;;;;;4.93;2.97;;;16.10;99.90;;;;;;4983250;28;20463;-65
2023/08/02 05:01:12;;;;;;;4.10;3.00;;;16.00;99.90;;;;;;4979383;28;20524;-68
2023/08/02 05:03:43;;;;;;;3.93;2.57;;;15.90;99.90;;;;;;4989893;28;20468;-63
2023/08/02 05:06:11;;;;;;;5.10;3.37;;;15.80;99.90;;;;;;4986684;28;20534;-65
2023/08/02 05:08:40;;;;;;;3.60;2.40;;;15.80;99.90;;;;;;4993338;28;20840;-65
2023/08/02 05:11:08;;;;;;;6.50;3.17;;;15.70;99.90;;;;;;4987470;28;20620;-64
2023/08/02 05:13:36;;;;;;;3.20;2.60;;;15.60;99.90;;;;;;4971520;28;20474;-66
2023/08/02 05:16:12;;;;;;;4.43;2.93;;;15.60;99.90;;;;;;4973555;28;20449;-65
2023/08/02 05:18:42;;;;;;;4.03;3.30;;;15.60;99.90;;;;;;4973541;28;20983;-65
2023/08/02 05:21:14;;;;;;;3.90;3.23;;;15.50;99.90;;;;;;4978515;28;21173;-65
2023/08/02 05:23:42;;;;;;;5.80;3.40;;;15.50;99.90;;;;;;4991530;28;20473;-65
2023/08/02 05:26:11;;;;;;;5.20;3.00;;;15.40;99.90;;;;;;4992847;28;20486;-66
2023/08/02 05:28:39;;;;;;;4.93;3.10;;;15.40;99.90;;;;;;4992874;28;21005;-66
2023/08/02 05:31:11;;;;;;;3.97;3.20;;;15.40;99.90;;;;;;4987939;28;20942;-65
2023/08/02 05:33:40;;;;;;;4.50;3.40;;;15.30;99.90;;;;;;4972310;28;20464;-65
2023/08/02 05:36:11;;;;;;;3.93;3.43;;;15.40;99.90;;;;;;4978442;28;20866;-66
2023/08/02 05:38:40;;;;;;;4.10;3.63;;;15.40;99.90;;;;;;4986447;28;20459;-71
2023/08/02 05:41:09;;;;;;;3.97;3.57;;;15.40;99.90;;;;;;4993821;28;20480;-65
2023/08/02 05:43:41;;;;;;;4.60;3.57;;;15.50;99.90;;;;;;4994816;28;20826;-65
2023/08/02 05:46:09;;;;;;;6.50;3.63;;;15.50;99.90;;;;;;4982966;28;20436;-65
2023/08/02 05:48:37;;;;;;;6.47;3.80;;;15.50;99.90;;;;;;4973280;28;20448;-66
2023/08/02 05:51:05;;;;;;;9.10;4.70;;;15.50;99.90;;;;;;4979146;28;20460;-66
2023/08/02 05:53:35;;;;;;;5.87;4.00;;;15.50;99.90;;;;;;4988878;28;20587;-65
2023/08/02 05:56:03;;;;;;;5.50;4.63;;;15.50;99.90;;;;;;4988813;28;20456;-65
2023/08/02 05:58:31;;;;;;;5.80;4.07;;;15.50;99.90;;;;;;4977216;28;20460;-65
2023/08/02 06:00:59;;;;;;;5.43;3.77;;;15.60;99.90;;;;;;4972554;28;20520;-65
2023/08/02 06:03:27;;;;;;;6.23;4.83;;;15.60;99.90;;;;;;4971417;28;20460;-66
2023/08/02 06:05:55;;;;;;;4.67;3.67;;;15.50;99.90;;;;;;4972906;28;20507;-65
2023/08/02 06:08:23;;;;;;;6.00;4.20;;;15.50;99.90;;;;;;4980721;28;20540;-66
2023/08/02 06:10:53;;;;;;;6.60;3.97;;;15.60;99.90;;;;;;4986336;28;20454;-64
2023/08/02 06:13:21;;;;;;;4.83;4.10;;;15.60;99.90;;;;;;4976364;28;20483;-66
2023/08/02 06:15:50;;;;;;;4.57;4.03;;;15.50;99.90;;;;;;4974378;28;20475;-68
2023/08/02 06:18:18;;;;;;;10.53;4.77;;;15.50;99.90;;;;;;4979428;28;20451;-66
2023/08/02 06:20:46;;;;;;;7.27;4.70;;;15.50;99.90;;;;;;4991617;28;20549;-66
2023/08/02 06:23:14;;;;;;;5.17;4.40;;;15.50;99.90;;;;;;4988961;28;20884;-67
2023/08/02 06:25:42;;;;;;;5.77;3.87;;;15.60;99.90;;;;;;4982796;28;20953;-66
2023/08/02 06:28:12;;;;;;;4.80;4.40;;;15.60;99.90;;;;;;4979029;28;20483;-67
2023/08/02 06:30:40;;;;;;;7.87;4.77;;;15.60;99.90;;;;;;4976363;28;20460;-67
2023/08/02 06:33:08;;;;;;;6.50;4.83;;;15.60;99.90;;;;;;4985422;28;20836;-67
2023/08/02 06:35:37;;;;;;;4.67;4.27;;;15.70;99.90;;;;;;4976693;28;20451;-66
2023/08/02 06:38:05;;;;;;;7.33;3.90;;;15.70;99.90;;;;;;4979211;28;20458;-67
2023/08/02 06:40:33;;;;;;;12.47;5.50;;;15.80;99.90;;;;;;4988617;28;20439;-66
2023/08/02 06:43:01;;;;;;;4.80;4.33;;;15.80;99.90;;;;;;4983092;28;20569;-67
2023/08/02 06:45:30;;;;;;;6.87;4.97;;;15.80;99.90;;;;;;4984425;28;20446;-67
2023/08/02 06:47:58;;;;;;;4.80;4.37;;;15.80;99.90;;;;;;4979141;28;20481;-66
2023/08/02 06:50:26;;;;;;;5.17;4.67;;;15.80;99.90;;;;;;4982478;28;20456;-66
2023/08/02 06:52:54;;;;;;;14.00;6.33;;;15.90;99.90;;;;;;4974403;28;20454;-67
2023/08/02 06:55:22;;;;;;;5.40;4.83;;;16.00;99.90;;;;;;4971280;28;20447;-68
2023/08/02 06:57:50;;;;;;;7.60;4.20;;;16.10;99.90;;;;;;4973312;28;20502;-66
2023/08/02 07:00:19;;;;;;;5.10;4.60;;;16.30;99.90;;;;;;4984603;28;20550;-66
2023/08/02 07:02:48;;;;;;;6.73;4.67;;;16.50;99.90;;;;;;4975534;28;20488;-68
2023/08/02 07:05:16;;;;;;;7.20;5.20;;;16.60;99.90;;;;;;4980607;28;20444;-67
2023/08/02 07:07:44;;;;;;;7.00;6.17;;;16.60;99.90;;;;;;4972510;28;20439;-67
2023/08/02 07:10:13;;;;;;;5.73;5.10;;;16.60;99.90;;;;;;4993314;28;20458;-66
2023/08/02 07:12:43;;;;;;;8.97;6.20;;;16.60;99.90;;;;;;4993184;28;20534;-68
2023/08/02 07:15:11;;;;;;;8.80;6.80;;;16.50;99.90;;;;;;5008270;28;20524;-66
2023/08/02 07:17:39;;;;;;;9.50;6.43;;;16.50;99.90;;;;;;4999213;28;20443;-66
2023/08/02 07:20:10;;;;;;;7.00;5.67;;;16.60;99.90;;;;;;4995782;28;20447;-66
2023/08/02 07:22:38;;;;;;;7.73;5.80;;;16.60;99.90;;;;;;4989411;28;20562;-69
2023/08/02 07:25:06;;;;;;;10.53;6.77;;;16.70;99.90;;;;;;4971344;28;20533;-67
2023/08/02 07:27:34;;;;;;;8.20;7.50;;;16.80;99.90;;;;;;4971160;28;20440;-66
2023/08/02 07:30:03;;;;;;;8.40;6.80;;;17.10;99.90;;;;;;4989962;28;20450;-68
2023/08/02 07:32:31;;;;;;;7.90;7.10;;;17.40;99.90;;;;;;4980611;28;20440;-65
2023/08/02 07:35:00;;;;;;;7.13;6.20;;;17.60;99.90;;;;;;4992985;28;20850;-66
2023/08/02 07:37:29;;;;;;;6.70;5.97;;;17.70;99.90;;;;;;4990327;28;20941;-66
2023/08/02 07:39:57;;;;;;;7.40;6.67;;;17.80;99.90;;;;;;4972240;28;20514;-66
2023/08/02 07:42:25;;;;;;;6.93;6.27;;;17.80;99.90;;;;;;4970111;28;20487;-62
2023/08/02 07:45:06;;;;;;;7.13;6.43;;;17.80;99.90;;;;;;4971170;28;20472;-66
2023/08/02 07:47:34;;;;;;;7.23;6.53;;;17.80;99.90;;;;;;4971190;28;20981;-66
2023/08/02 07:50:03;;;;;;;7.20;6.60;;;17.80;99.90;;;;;;4989809;28;20457;-66
2023/08/02 07:52:34;;;;;;;7.50;6.60;;;17.80;99.90;;;;;;4970817;28;20930;-67
2023/08/02 07:55:03;;;;;;;7.50;6.53;;;18.00;99.90;;;;;;4970817;28;20483;-66
2023/08/02 07:57:32;;;;;;;7.67;6.97;;;18.00;99.90;;;;;;4971161;28;20450;-66
2023/08/02 08:00:00;;;;;;;7.43;6.50;;;17.90;99.90;;;;;;4971181;28;20448;-66
2023/08/02 08:02:28;;;;;;;8.13;7.35;;;18.10;99.90;;;;;;4985998;28;20460;-66
2023/08/02 08:04:56;;;;;;;7.83;7.03;;;18.10;99.90;;;;;;4990045;28;20233;-64
2023/08/02 08:07:25;;;;;;;7.67;6.27;;;18.10;99.90;;;;;;4990200;28;21235;-67
2023/08/02 08:09:55;;;;;;;7.10;6.10;;;18.10;99.90;;;;;;4990566;28;20450;-67
2023/08/02 08:12:24;;;;;;;8.23;6.40;;;18.00;99.90;;;;;;4972990;28;20547;-64
2023/08/02 08:14:52;;;;;;;7.60;6.90;;;17.90;99.90;;;;;;4970654;28;20495;-66
2023/08/02 08:17:20;;;;;;;7.40;6.70;;;17.70;99.90;;;;;;4970600;28;20455;-66
2023/08/02 08:19:50;;;;;;;8.97;6.70;;;17.50;99.90;;;;;;4971057;28;20457;-66
2023/08/02 08:22:20;;;;;;;10.17;7.50;;;17.40;99.90;;;;;;4985689;28;20470;-66
2023/08/02 08:24:48;;;;;;;8.10;7.27;;;17.30;99.90;;;;;;4993767;28;20474;-67
2023/08/02 08:27:18;;;;;;;10.17;7.80;;;17.30;99.90;;;;;;4994205;28;20538;-66
2023/08/02 08:29:46;;;;;;;7.30;6.60;;;17.30;99.90;;;;;;4994004;28;20446;-67
2023/08/02 08:32:14;;;;;;;8.10;7.30;;;17.40;99.90;;;;;;4979491;28;20459;-67
2023/08/02 08:34:42;;;;;;;8.10;6.67;;;17.40;99.90;;;;;;4973847;28;20468;-66
2023/08/02 08:37:10;;;;;;;11.43;6.17;;;17.40;99.90;;;;;;4974399;28;20478;-66
2023/08/02 08:39:38;;;;;;;7.13;6.43;;;17.40;99.90;;;;;;4974449;28;20822;-67
2023/08/02 08:42:08;;;;;;;7.57;6.77;;;17.50;99.90;;;;;;4987044;28;20458;-66
2023/08/02 08:44:38;;;;;;;8.47;7.10;;;17.60;99.90;;;;;;4992642;28;21047;-66
2023/08/02 08:47:07;;;;;;;8.27;6.60;;;17.70;99.90;;;;;;4994095;28;20446;-67
2023/08/02 08:49:35;;;;;;;7.47;5.63;;;17.70;99.90;;;;;;4993805;28;20497;-63
2023/08/02 08:52:06;;;;;;;9.33;6.90;;;17.70;99.90;;;;;;4980610;28;20454;-66
2023/08/02 08:54:38;;;;;;;7.43;6.73;;;17.80;99.90;;;;;;4973095;28;20459;-65
2023/08/02 08:57:08;;;;;;;7.30;5.70;;;17.80;99.90;;;;;;4974196;28;20457;-64
2023/08/02 08:59:38;;;;;;;6.90;6.03;;;17.90;99.90;;;;;;4973985;28;20451;-65
2023/08/02 09:02:07;;;;;;;6.73;5.40;;;18.00;99.90;;;;;;4986190;28;20961;-64
2023/08/02 09:04:36;;;;;;;5.30;4.80;;;17.90;99.90;;;;;;4984994;28;20499;-66
2023/08/02 09:07:04;;;;;;;3.70;3.40;;;17.80;99.90;;;;;;4973859;28;20459;-64
2023/08/02 09:09:32;;;;;;;3.80;3.40;;;17.80;99.90;;;;;;4973733;28;20468;-66
2023/08/02 09:12:01;;;;;;;5.10;4.00;;;17.60;99.90;;;;;;4985052;28;20470;-68
2023/08/02 09:14:29;;;;;;;4.27;3.63;;;17.50;99.90;;;;;;4992064;28;20501;-66
2023/08/02 09:17:01;;;;;;;4.30;3.63;;;17.60;99.90;;;;;;4993023;28;20557;-66
2023/08/02 09:19:31;;;;;;;4.10;3.70;;;17.60;99.90;;;;;;4992983;28;20529;-66
2023/08/02 09:22:09;;;;;;;2.97;2.70;;;17.50;99.90;;;;;;4981177;28;20897;-68
2023/08/02 09:24:38;;;;;;;4.30;3.30;;;17.60;99.90;;;;;;4989410;28;20565;-66
2023/08/02 09:27:08;;;;;;;3.80;3.10;;;17.70;99.90;;;;;;4992952;28;20455;-65
2023/08/02 09:29:44;;;;;;;3.77;3.30;;;17.70;99.90;;;;;;4993046;28;20610;-67
2023/08/02 09:32:14;;;;;;;4.33;3.93;;;17.70;99.90;;;;;;4979415;28;20458;-66
2023/08/02 09:34:44;;;;;;;3.97;3.57;;;17.70;99.90;;;;;;4972497;28;20464;-66
2023/08/02 09:37:13;;;;;;;4.80;3.60;;;17.70;99.90;;;;;;4973635;28;20451;-67
2023/08/02 09:39:48;;;;;;;7.13;6.00;;;17.70;99.90;;;;;;4973755;28;20457;-66
2023/08/02 09:42:17;;;;;;;5.37;4.00;;;17.80;99.90;;;;;;4985834;28;20466;-66
2023/08/02 09:44:53;;;;;;;3.53;3.23;;;17.80;99.90;;;;;;4991868;28;20482;-66
2023/08/02 09:47:22;;;;;;;3.60;3.30;;;17.90;99.90;;;;;;4992804;28;20460;-67
2023/08/02 09:50:05;;;;;;;5.20;4.20;;;18.10;99.90;;;;;;4992437;28;20497;-67
2023/08/02 09:52:33;;;;;;;4.93;4.03;;;18.30;99.90;;;;;;4976266;28;20514;-66
2023/08/02 09:55:01;;;;;;;5.23;3.93;;;18.30;99.90;;;;;;4972585;28;20475;-66
2023/08/02 09:57:31;;;;;;;3.60;3.30;;;18.40;99.90;;;;;;4973270;28;20443;-65
2023/08/02 10:00:04;;;;;;;4.50;3.43;;;18.40;99.90;;;;;;4973326;28;20447;-65
2023/08/02 10:02:35;;;;;;;4.30;3.83;;;18.50;99.90;;;;;;4989447;28;20478;-66
2023/08/02 10:05:06;;;;;;;5.50;3.30;;;18.60;99.90;;;;;;4992174;28;20546;-64
2023/08/02 10:07:40;;;;;;;4.33;3.90;;;18.60;99.90;;;;;;4992072;28;20534;-66
2023/08/02 10:10:13;;;;;;;4.67;3.83;;;18.70;99.90;;;;;;4991841;28;20439;-66
2023/08/02 10:12:41;;;;;;;4.10;3.70;;;18.70;99.90;;;;;;4971247;28;20472;-68
2023/08/02 10:15:10;;;;;;;5.33;3.80;;;18.90;99.90;;;;;;4971671;28;20460;-68
2023/08/02 10:17:40;;;;;;;4.87;4.03;;;19.20;99.90;;;;;;4971655;28;21012;-66
2023/08/02 10:20:09;;;;;;;4.20;3.67;;;19.40;99.90;;;;;;4971555;28;20444;-66
2023/08/02 10:22:38;;;;;;;4.77;4.17;;;19.80;99.90;;;;;;4988307;28;20470;-66
2023/08/02 10:25:10;;;;;;;5.10;4.13;;;20.00;99.90;;;;;;4990860;28;20479;-66
2023/08/02 10:27:38;;;;;;;4.17;3.77;;;20.00;99.90;;;;;;4990909;28;20461;-67
2023/08/02 10:30:09;;;;;;;4.50;4.10;;;20.00;99.90;;;;;;4991243;28;20451;-66
2023/08/02 10:32:38;;;;;;;5.10;3.93;;;20.10;99.90;;;;;;4971964;28;20539;-66
2023/08/02 10:35:07;;;;;;;4.37;3.97;;;20.30;99.90;;;;;;4971514;28;20837;-65
2023/08/02 10:37:56;;;;;;;4.60;4.20;;;20.40;99.90;;;;;;4971417;28;20459;-65
2023/08/02 10:40:26;;;;;;;4.77;4.27;;;20.40;99.90;;;;;;4966930;28;20444;-66
2023/08/02 10:43:07;;;;;;;7.93;4.63;;;20.30;99.90;;;;;;4969863;28;20446;-66
2023/08/02 10:45:37;;;;;;;6.17;5.10;;;20.20;99.90;;;;;;4970623;28;20533;-67
2023/08/02 10:48:27;;;;;;;5.13;4.70;;;20.00;99.90;;;;;;4971356;28;20455;-67
2023/08/02 10:50:56;;;;;;;5.10;4.60;;;19.80;99.90;;;;;;4974435;28;20534;-67
2023/08/02 10:53:24;;;;;;;6.40;4.77;;;19.60;99.90;;;;;;4989358;28;20509;-66
2023/08/02 10:56:16;;;;;;;5.83;5.33;;;19.50;99.90;;;;;;4990375;28;20442;-65
2023/08/02 10:58:50;;;;;;;6.67;4.93;;;19.40;99.90;;;;;;4991040;28;20439;-66
2023/08/02 11:01:19;;;;;;;6.20;5.17;;;19.30;99.90;;;;;;4989263;28;20450;-66
2023/08/02 11:03:49;;;;;;;5.87;5.27;;;19.30;99.90;;;;;;4989253;28;20474;-66
2023/08/02 11:06:29;;;;;;;4.97;4.50;;;19.30;99.90;;;;;;4990739;28;20582;-66
2023/08/02 11:09:02;;;;;;;6.47;5.50;;;19.30;99.90;;;;;;4990611;28;20960;-66
2023/08/02 11:11:35;;;;;;;5.03;4.63;;;19.30;99.90;;;;;;4945572;28;1092189;-66
2023/08/02 11:14:04;;;;;;;5.43;4.93;;;19.40;99.90;;;;;;4970741;28;20539;-66
2023/08/02 11:16:45;;;;;;;6.13;5.20;;;19.50;99.90;;;;;;4971870;28;20572;-67
2023/08/02 11:19:20;;;;;;;5.33;4.83;;;19.50;99.90;;;;;;4971752;28;20459;-67
2023/08/02 11:21:54;;;;;;;6.20;5.17;;;19.60;99.90;;;;;;4981311;28;20447;-67
2023/08/02 11:24:22;;;;;;;5.90;5.30;;;19.60;99.90;;;;;;4989675;28;20569;-66
2023/08/02 11:26:56;;;;;;;5.73;5.10;;;19.50;99.90;;;;;;4990920;28;20454;-67
2023/08/02 11:29:25;;;;;;;6.80;4.97;;;19.40;99.90;;;;;;4990938;28;20451;-68
2023/08/02 11:31:54;;;;;;;6.43;5.30;;;19.40;99.90;;;;;;4980719;28;20451;-68
2023/08/02 11:34:24;;;;;;;6.50;5.87;;;19.30;99.90;;;;;;4970489;28;20506;-66
2023/08/02 11:36:53;;;;;;;5.37;4.87;;;19.30;99.90;;;;;;4971752;28;20436;-64
2023/08/02 11:39:21;;;;;;;7.00;5.30;;;19.30;99.90;;;;;;4971811;28;20513;-66
2023/08/02 11:42:02;;;;;;;5.80;5.30;;;19.30;99.90;;;;;;4980928;28;20447;-67
2023/08/02 11:44:30;;;;;;;5.60;5.10;;;19.50;99.90;;;;;;4989947;28;20486;-66
2023/08/02 11:46:58;;;;;;;6.20;5.40;;;19.60;99.90;;;;;;4990763;28;20447;-66
2023/08/02 11:49:28;;;;;;;12.93;5.77;;;19.70;99.90;;;;;;4975196;28;20506;-66
2023/08/02 11:51:56;;;;;;;5.90;5.33;;;19.80;99.90;;;;;;4984581;28;20482;-67
2023/08/02 11:54:24;;;;;;;6.20;5.70;;;20.20;99.90;;;;;;4989476;28;20895;-65
2023/08/02 11:56:52;;;;;;;5.03;4.43;;;20.50;99.90;;;;;;4989517;28;20485;-65
2023/08/02 11:59:20;;;;;;;7.60;4.80;;;20.80;99.90;;;;;;4990666;28;20833;-67
2023/08/02 12:01:48;;;;;;;5.07;4.30;;;21.00;99.90;;;;;;4978317;28;21019;-67
2023/08/02 12:04:16;;;;;;;6.37;4.50;;;21.20;99.90;;;;;;4969770;28;20491;-67
2023/08/02 12:06:48;;;;;;;5.80;5.20;;;21.30;99.90;;;;;;4970958;28;20479;-66
2023/08/02 12:09:17;;;;;;;6.97;4.73;;;21.30;99.90;;;;;;4971416;28;20457;-67
2023/08/02 12:11:51;;;;;;;5.97;4.73;;;21.30;99.90;;;;;;4982135;28;21129;-66
2023/08/02 12:14:28;;;;;;;6.50;5.13;;;21.20;99.90;;;;;;4989495;28;20451;-66
2023/08/02 12:16:56;;;;;;;5.03;4.53;;;21.10;99.90;;;;;;4990487;28;20987;-66
2023/08/02 12:19:38;;;;;;;5.77;4.90;;;21.20;99.90;;;;;;4990238;28;20529;-67
2023/08/02 12:22:08;;;;;;;4.57;4.10;;;21.20;99.90;;;;;;4975928;28;20506;-66
2023/08/02 12:24:37;;;;;;;4.93;4.53;;;21.40;99.90;;;;;;4970047;28;20538;-67
2023/08/02 12:27:16;;;;;;;6.97;4.97;;;21.50;99.90;;;;;;4971013;28;20447;-66
2023/08/02 12:29:45;;;;;;;5.57;4.47;;;21.70;99.90;;;;;;4970872;28;20448;-65
2023/08/02 12:32:25;;;;;;;4.93;4.40;;;21.90;99.90;;;;;;4970447;28;20444;-67
2023/08/02 12:34:54;;;;;;;4.10;3.63;;;22.30;99.90;;;;;;4988755;28;20525;-66
2023/08/02 12:37:38;;;;;;;6.07;3.63;;;22.60;99.90;;;;;;4990066;28;20446;-67
2023/08/02 12:40:07;;;;;;;4.70;3.53;;;22.90;99.90;;;;;;4990115;28;20449;-66
2023/08/02 12:42:36;;;;;;;4.90;3.43;;;23.00;99.90;;;;;;4989115;28;20466;-68
2023/08/02 12:45:25;;;;;;;4.00;3.47;;;23.20;99.90;;;;;;4990045;28;21047;-65
2023/08/02 12:47:53;;;;;;;4.03;3.57;;;23.20;99.90;;;;;;4979033;28;20498;-65
2023/08/02 12:50:22;;;;;;;3.60;3.30;;;23.10;99.90;;;;;;4970503;28;20876;-66
2023/08/02 12:52:55;;;;;;;4.90;3.83;;;23.10;99.90;;;;;;4969508;28;20440;-66
2023/08/02 12:55:23;;;;;;;4.23;3.40;;;23.10;99.90;;;;;;4970332;28;20435;-67
2023/08/02 12:57:51;;;;;;;4.00;2.87;;;23.10;99.90;;;;;;4970597;28;20534;-67